METAR Data
IDs: Format: Raw Decoded Include TAF

Data at: 0623 UTC 23 Feb 2019

K0F2 230615Z AUTO 12003KT 1/2SM FG OVC003 08/08 A2982 RMK AO2 T00810080
K0F2 230555Z AUTO 10003KT 1/4SM FG OVC003 08/08 A2983 RMK AO2 T00810080 10081 20078 400830057
K0F2 230535Z AUTO 00000KT 1/4SM FG OVC003 08/08 A2984 RMK AO2 T00810080
K0F2 230515Z AUTO 00000KT 1/4SM FG OVC003 08/08 A2985 RMK AO2 T00810080
K0F2 230455Z AUTO 00000KT 1/4SM FG OVC003 08/08 A2988 RMK AO2 T00800080
K0F2 230435Z AUTO 15004KT 1/2SM FG OVC003 08/08 A2988 RMK AO2 T00800079
K0F2 230415Z AUTO 15003KT 3/4SM BR OVC003 08/08 A2988 RMK AO2 T00800079
K0F2 230355Z AUTO 16005KT 3/4SM BR OVC003 08/08 A2989 RMK AO2 T00800077
K0F2 230335Z AUTO 15004KT 3/4SM BR OVC003 08/08 A2988 RMK AO2 T00790077
K0F2 230315Z AUTO 14007KT 3/4SM BR OVC003 08/08 A2988 RMK AO2 T00780076
K0F2 230255Z AUTO 13006KT 3/4SM BR OVC003 08/08 A2988 RMK AO2 T00780076
K0F2 230235Z AUTO 14003KT 1/2SM FG OVC003 08/08 A2988 RMK AO2 T00780076
K0F2 230215Z AUTO 13007KT 3/4SM BR OVC003 08/08 A2988 RMK AO2 T00780076
K0F2 230155Z AUTO 13004KT 1 1/4SM BR OVC003 08/08 A2988 RMK AO2 T00780075
K0F2 230135Z AUTO 13005KT 3SM BR OVC003 08/08 A2989 RMK AO2 T00780075
K0F2 230115Z AUTO 12004KT 5SM BR OVC003 08/08 A2989 RMK AO2 T00780075
K0F2 230055Z AUTO 12004KT 7SM OVC003 08/08 A2989 RMK AO2 T00780075
K0F2 230035Z AUTO 12005KT 10SM OVC005 08/08 A2989 RMK AO2 T00800075
K0F2 230015Z AUTO 12003KT 10SM OVC005 08/08 A2989 RMK AO2 T00810076
K0F2 222355Z AUTO 12005KT 10SM OVC005 08/08 A2990 RMK AO2 T00810076 10083 20076
K0F2 222335Z AUTO 11005KT 5SM BR OVC003 08/08 A2990 RMK AO2 T00810078
K0F2 222315Z AUTO 12006KT 2 1/2SM BR OVC003 08/08 A2991 RMK AO2 T00820079
K0F2 222255Z AUTO 10004KT 2 1/2SM BR OVC003 08/08 A2991 RMK AO2 T00820077
K0F2 222235Z AUTO 12005KT 5SM BR OVC003 08/08 A2992 RMK AO2 T00830077
K0F2 222215Z AUTO 14005KT 10SM OVC003 08/08 A2992 RMK AO2 T00830077
K0F2 222155Z AUTO 11004KT 5SM BR OVC003 08/08 A2992 RMK AO2 T00820076
K0F2 222135Z AUTO 12003KT 3SM BR OVC003 08/08 A2992 RMK AO2 T00810075
K0F2 222115Z AUTO 12005KT 5SM BR OVC003 08/07 A2991 RMK AO2 T00800074
K0F2 222055Z AUTO 10004KT 10SM OVC005 08/07 A2992 RMK AO2 T00800073
K0F2 222035Z AUTO 10006KT 10SM OVC005 08/07 A2993 RMK AO2 T00790071
K0F2 222015Z AUTO 10004KT 10SM OVC005 08/07 A2992 RMK AO2 T00810072
K0F2 221955Z AUTO 10005KT 10SM OVC003 08/07 A2993 RMK AO2 T00800074
K0F2 221935Z AUTO 10005KT 7SM OVC003 08/07 A2994 RMK AO2 T00770072
K0F2 221915Z AUTO 12004KT 5SM BR OVC003 08/07 A2996 RMK AO2 T00760072
K0F2 221855Z AUTO 09003KT 5SM RA OVC005 08/07 A2996 RMK AO2 T00770072
K0F2 221835Z AUTO 09006KT 10SM OVC005 08/07 A2998 RMK AO2 T00760070
K0F2 221815Z AUTO 09006KT 10SM OVC005 08/07 A2998 RMK AO2 T00800072
K0F2 221755Z AUTO 10006KT 10SM OVC005 08/08 A3000 RMK AO2 60001 T00810075 10081 20060
K0F2 221735Z AUTO 09006KT 10SM OVC005 08/07 A3001 RMK AO2 T00780072
K0F2 221715Z AUTO 10005KT 10SM OVC005 08/08 A3002 RMK AO2 T00790075
K0F2 221655Z AUTO 09003KT 10SM OVC005 08/07 A3003 RMK AO2 T00750072
K0F2 221635Z AUTO 05003KT 10SM OVC003 07/07 A3003 RMK AO2 T00740071
K0F2 221615Z AUTO 05004KT 7SM OVC003 07/07 A3003 RMK AO2 T00740073
K0F2 221555Z AUTO 00000KT 5SM BR OVC003 07/07 A3004 RMK AO2 P0001 T00700069
K0F2 221535Z AUTO 00000KT 4SM BR OVC003 07/07 A3005 RMK AO2 P0001 T00690067
K0F2 221515Z AUTO 00000KT 1 1/2SM -RA OVC003 07/07 A3004 RMK AO2 P0001 T00660065
K0F2 221455Z AUTO 00000KT 1/2SM -RA OVC003 07/06 A3005 RMK AO2 T00650063
K0F2 221435Z AUTO 00000KT 1/2SM -DZ OVC003 07/06 A3005 RMK AO2 T00650063
K0F2 221415Z AUTO 00000KT 1/2SM FG OVC003 06/06 A3005 RMK AO2 T00630062
K0F2 221355Z AUTO 13003KT 3/4SM -RA OVC003 06/06 A3004 RMK AO2 T00620061
K0F2 221335Z AUTO 00000KT 1SM -DZ OVC003 06/06 A3003 RMK AO2 T00610060
K0F2 221315Z AUTO 13004KT 3/4SM -RA OVC003 06/06 A3002 RMK AO2 T00610060
K0F2 221255Z AUTO 00000KT 3/4SM BR OVC003 06/06 A3000 RMK AO2 T00610060
K0F2 221235Z AUTO 10003KT 3/4SM BR OVC003 06/06 A3000 RMK AO2 T00600059
K0F2 221215Z AUTO 07005KT 3/4SM BR OVC003 06/06 A2997 RMK AO2 T00600059
K0F2 221155Z AUTO 08006KT 1SM BR OVC003 06/06 A2997 RMK AO2 T00600058 10064 20057
K0F2 221135Z AUTO 08005KT 1SM BR OVC003 06/06 A2996 RMK AO2 T00600057
K0F2 221115Z AUTO 10005KT 1 1/4SM BR OVC003 06/06 A2996 RMK AO2 T00600057
K0F2 221055Z AUTO 08005KT 1 1/4SM BR OVC003 06/06 A2995 RMK AO2 T00590056
K0F2 221035Z AUTO 08006KT 2SM BR OVC003 06/06 A2996 RMK AO2 T00590056
K0F2 221015Z AUTO 09005KT 2SM BR OVC003 06/06 A2996 RMK AO2 T00590056
K0F2 220955Z AUTO 09005KT 2 1/2SM BR OVC003 06/06 A2997 RMK AO2 T00590055
K0F2 220935Z AUTO 10006KT 2 1/2SM BR OVC003 06/06 A2998 RMK AO2 T00580055
K0F2 220915Z AUTO 10006KT 4SM BR OVC003 06/06 A2999 RMK AO2 T00580055
K0F2 220855Z AUTO 10007KT 3SM BR OVC003 06/05 A2999 RMK AO2 T00570053
K0F2 220835Z AUTO 10005KT 2 1/2SM BR OVC003 06/05 A2998 RMK AO2 T00570053
K0F2 220815Z AUTO 10005KT 2 1/2SM BR OVC005 06/05 A3000 RMK AO2 T00580053
K0F2 220755Z AUTO 09008KT 4SM BR OVC005 06/05 A3000 RMK AO2 T00600051
K0F2 220735Z AUTO 10006KT 7SM OVC007 06/05 A3000 RMK AO2 T00600050
K0F2 220715Z AUTO 11004KT 10SM OVC007 06/05 A3001 RMK AO2 T00610046
K0F2 220655Z AUTO 10004KT 10SM OVC009 06/05 A3001 RMK AO2 T00620045
K0F2 220635Z AUTO 10004KT 10SM OVC011 06/05 A3002 RMK AO2 T00630045
K0F2 220615Z AUTO 10003KT 10SM OVC011 06/04 A3002 RMK AO2 T00630043
K0F2 220555Z AUTO 10006KT 10SM OVC013 06/04 A3001 RMK AO2 T00630041 10080 20061 400980046
K0F2 220535Z AUTO 09006KT 10SM OVC015 06/04 A3000 RMK AO2 T00630040
K0F2 220515Z AUTO 09004KT 10SM OVC017 06/04 A3000 RMK AO2 T00630040
K0F2 220455Z AUTO 08008KT 10SM OVC019 07/04 A3000 RMK AO2 T00650039
K0F2 220435Z AUTO 07004KT 10SM OVC021 07/04 A3002 RMK AO2 T00650038
K0F2 220415Z AUTO 10007KT 10SM OVC021 06/04 A3002 RMK AO2 T00630038
K0F2 220355Z AUTO 10005KT 10SM SCT021 06/04 A3002 RMK AO2 T00620035
K0F2 220335Z AUTO 11006KT 10SM CLR 06/03 A3001 RMK AO2 T00630034
K0F2 220315Z AUTO 09005KT 10SM CLR 07/04 A2999 RMK AO2 T00650036
K0F2 220255Z AUTO 09007KT 10SM CLR 07/04 A2999 RMK AO2 T00660036
K0F2 220235Z AUTO 11006KT 10SM SCT060 07/04 A2999 RMK AO2 T00660040
K0F2 220215Z AUTO 09004KT 10SM SCT060 07/04 A2999 RMK AO2 T00660040
K0F2 220155Z AUTO 10004KT 10SM CLR 07/04 A2998 RMK AO2 T00670038
K0F2 220135Z AUTO 10005KT 10SM CLR 07/04 A2998 RMK AO2 T00690038
K0F2 220115Z AUTO 10004KT 10SM CLR 07/04 A2996 RMK AO2 T00710038
K0F2 220055Z AUTO 10005KT 10SM CLR 07/04 A2997 RMK AO2 T00730038
K0F2 220035Z AUTO 10006KT 10SM CLR 08/04 A2996 RMK AO2 T00760037
K0F2 220015Z AUTO 10007KT 10SM CLR 08/04 A2995 RMK AO2 T00780037
K0F2 212355Z AUTO 09006KT 10SM SCT065 08/04 A2994 RMK AO2 T00810043 10098 20081
K0F2 212335Z AUTO 09007KT 10SM OVC065 08/04 A2995 RMK AO2 T00840042
K0F2 212315Z AUTO 10005KT 10SM SCT019 OVC065 09/04 A2996 RMK AO2 T00870043
K0F2 212255Z AUTO 11006KT 10SM SCT019 BKN065 09/05 A2996 RMK AO2 T00910045
K0F2 212235Z AUTO 10006KT 10SM CLR 09/04 A2995 RMK AO2 T00910044
K0F2 212215Z AUTO 11007G15KT 10SM CLR 09/04 A2994 RMK AO2 T00880038
K0F2 212155Z AUTO 11007KT 10SM SCT070 09/04 A2994 RMK AO2 T00920036
K0F2 212135Z AUTO 10008G14KT 050V130 10SM OVC070 09/03 A2994 RMK AO2 T00910032
K0F2 212115Z AUTO 11009G17KT 10SM OVC070 09/03 A2996 RMK AO2 T00900027
K0F2 212055Z AUTO 11004KT 10SM SCT060 OVC070 09/03 A2996 RMK AO2 T00890025
K0F2 212035Z AUTO 10007KT 10SM OVC065 09/02 A2998 RMK AO2 T00880020
K0F2 212015Z AUTO 10007KT 10SM OVC065 09/01 A2998 RMK AO2 T00890014
K0F2 211955Z AUTO 10010G15KT 10SM OVC065 09/00 A2997 RMK AO2 T00920001
K0F2 211935Z AUTO 10008G16KT 080V140 10SM OVC075 10/M01 A2998 RMK AO2 T00961006
K0F2 211915Z AUTO 10010G18KT 080V140 10SM BKN075 10/M01 A2999 RMK AO2 T00971006
K0F2 211855Z AUTO 11009G21KT 10SM SCT090 10/00 A3000 RMK AO2 T00951003
K0F2 211835Z AUTO 12007G23KT 10SM OVC090 09/00 A3001 RMK AO2 T00921002